Buoy 13569

sailwx.info

Track history (hours):
 
Tides and Currents Weather Stations Pressure Air Temp Water Temp Dewpoint Dewpoint Depression Visibility Wind Speed Wind Dir Waves Ship Positions

Drifting buoy 13569

Last reported at 2015-Mar-27 00:00 UTC. Time now 2015-Mar-27 01:55 UTC.
Position N 30°29' W 032°31'.

Barometer 1025.0 mb
Water temperature 19.6 ° C

Date/timePositionNaut miles runAvg speedWind from/ knotsBaromVisibWave heightAir tempDewpointWater temp
2015-Mar-27 00:00N 30°29' W 032°31'1 0.4 1025.0 19.6
2015-Mar-26 22:00N 30°29' W 032°30'2 0.1 1024.6 19.6
2015-Mar-26 08:00N 30°29' W 032°28'1 1.0 1024.1 19.5
2015-Mar-26 07:00N 30°30' W 032°28'0 0.0 1024.1 19.5
2015-Mar-26 04:00N 30°30' W 032°28'1 0.2 1025.0 19.6
2015-Mar-25 23:00N 30°30' W 032°27'0 0.0 1026.0 19.6
2015-Mar-25 20:00N 30°30' W 032°27'1 0.2 1025.0 19.7
2015-Mar-25 16:00N 30°31' W 032°27'0 0.3 1025.1 19.8
2015-Mar-25 15:00N 30°31' W 032°27'0 0.1 1026.0 19.7
2015-Mar-25 12:00N 30°31' W 032°27'0 0.1 1027.5 19.6
2015-Mar-25 11:00N 30°31' W 032°27'1 1.0 1027.5 19.5
2015-Mar-25 10:00N 30°31' W 032°26'1 0.3 1027.5 19.5
2015-Mar-25 08:00N 30°32' W 032°26'0 0.0 1026.6 19.5
2015-Mar-25 07:00N 30°32' W 032°26'0 0.1 1026.5 19.5
2015-Mar-25 05:00N 30°32' W 032°25'0 0.5 1026.4 19.5
2015-Mar-25 04:00N 30°32' W 032°26'1 0.8 1026.8 19.5
2015-Mar-25 03:00N 30°33' W 032°25'2 0.2 1027.1 19.5
2015-Mar-24 17:00N 30°34' W 032°24'1 0.4 1027.6 19.7
2015-Mar-24 15:00N 30°34' W 032°25'1 1.2 1028.3 19.6
2015-Mar-24 14:00N 30°35' W 032°24'1 0.5 1028.5 19.6
2015-Mar-24 11:00N 30°36' W 032°23'2 0.1 1029.3 19.5
2015-Mar-23 23:00N 30°38' W 032°24'0 0.0 1029.3 19.5
2015-Mar-23 22:00N 30°38' W 032°24'1 0.3 1029.0 19.5
2015-Mar-23 17:00N 30°39' W 032°24'1 0.5 1027.9 19.6
2015-Mar-23 15:00N 30°40' W 032°24'0 0.1 1028.4 19.6
2015-Mar-23 09:00N 30°40' W 032°24'2 0.7 1028.0 19.4
2015-Mar-23 06:00N 30°42' W 032°24'0 0.0 1026.8 19.5
2015-Mar-23 05:00N 30°42' W 032°24'1 0.1 1026.4 19.5
2015-Mar-22 22:00N 30°43' W 032°24'3 0.3 1026.4 19.5
2015-Mar-22 12:00N 30°46' W 032°24'1 1.0 1026.5 19.5
2015-Mar-22 11:00N 30°47' W 032°24'1 0.4 1026.4 19.5
2015-Mar-22 07:00N 30°48' W 032°23'1 0.3 1024.8 19.5
2015-Mar-22 04:00N 30°48' W 032°22'2 0.4 1024.9 19.5
2015-Mar-21 22:00N 30°50' W 032°22'3 0.2 1025.5 19.6
2015-Mar-21 08:00N 30°52' W 032°18'2 0.9 1024.1 19.5
2015-Mar-21 06:00N 30°54' W 032°18'0 0.0 1023.9 19.5
2015-Mar-21 05:00N 30°54' W 032°18'2 0.3 1024.0 19.5
2015-Mar-20 22:00N 30°54' W 032°15'0 0.1 1024.9 19.6
2015-Mar-20 18:00N 30°54' W 032°15'3 0.4 1024.0 19.6
2015-Mar-20 11:00N 30°56' W 032°13'1 0.1 1026.1 19.5
2015-Mar-20 05:00N 30°57' W 032°14'3 0.3 1025.8 19.5
2015-Mar-19 20:00N 30°57' W 032°10'1 0.4 1027.0 19.6
2015-Mar-19 16:00N 30°58' W 032°09'0 0.0 1027.4 19.6
2015-Mar-19 15:00N 30°58' W 032°09'1 0.1 1027.9 19.6
2015-Mar-19 07:00N 30°57' W 032°08'0 0.0 1027.5 19.5
2015-Mar-19 06:00N 30°57' W 032°08'0 0.0 1027.5 19.5
2015-Mar-19 04:00N 30°58' W 032°08'1 0.2 1028.3 19.5
2015-Mar-18 23:00N 30°58' W 032°09'0 0.3 1029.1 19.6
2015-Mar-18 22:00N 30°58' W 032°09'0 0.4 1028.8 19.6
2015-Mar-18 21:00N 30°58' W 032°08'1 0.7 1028.3 19.7
2015-Mar-18 20:00N 30°58' W 032°09'0 0.0 1027.9 19.7
2015-Mar-18 19:00N 30°58' W 032°09'0 0.1 1027.4 19.7
2015-Mar-18 17:00N 30°58' W 032°09'0 0.0 1027.0 19.8
2015-Mar-18 16:00N 30°58' W 032°09'1 0.3 1027.1 19.7
2015-Mar-18 13:00N 30°59' W 032°09'1 0.4 1029.0 19.6
2015-Mar-18 10:00N 30°58' W 032°10'1 0.4 1028.6 19.6
2015-Mar-18 07:00N 30°58' W 032°11'0 0.1 1027.8 19.6
2015-Mar-18 06:00N 30°58' W 032°11'1 0.5 1027.6 19.6
2015-Mar-18 04:00N 30°58' W 032°12'1 1.1 1028.4 19.6
2015-Mar-18 03:00N 30°58' W 032°13'0 0.0 1029.0 19.6
2015-Mar-18 00:00N 30°58' W 032°13'1 1.5 1029.3 19.6
2015-Mar-17 23:00N 30°59' W 032°15'1 0.8 1029.0 19.6
2015-Mar-17 22:00N 30°59' W 032°16'0 0.2 1028.5 19.7
2015-Mar-17 20:00N 30°60' W 032°16'0 0.2 1027.1 19.7
2015-Mar-17 18:00N 30°60' W 032°16'2 0.5 1026.8 19.8
2015-Mar-17 14:00N 31°00' W 032°18'1 0.4 1027.8 19.7
2015-Mar-17 11:00N 31°01' W 032°20'0 0.5 1028.1 19.6
2015-Mar-17 10:00N 31°01' W 032°20'0 0.4 1027.6 19.6
2015-Mar-17 09:00N 31°01' W 032°20'1 0.5 1027.0 19.6
2015-Mar-17 08:00N 31°01' W 032°21'0 0.0 1026.5 19.6
2015-Mar-17 07:00N 31°01' W 032°21'3 2.6 1026.4 19.6
2015-Mar-17 06:00N 31°04' W 032°21'0 0.0 1026.5 19.6
2015-Mar-17 05:00N 31°04' W 032°21'0 0.0 1026.5 19.6
2015-Mar-17 04:00N 31°04' W 032°21'0 0.0 1027.0 19.6
2015-Mar-17 03:00N 31°04' W 032°21'   1027.4 19.6
Track history (hours):
 
Tides and Currents Weather Stations Pressure Air Temp Water Temp Dewpoint Dewpoint Depression Visibility Wind Speed Wind Dir Waves Ship Positions

Drifting buoy 13569

Last reported at 2015-Mar-27 00:00 UTC. Time now 2015-Mar-27 01:55 UTC.
Position N 30°29' W 032°31'.

Barometer 1025.0 mb
Water temperature 19.6 ° C

Date/timePositionNaut miles runAvg speedWind from/ knotsBaromVisibWave heightAir tempDewpointWater temp
2015-Mar-27 00:00N 30°29' W 032°31'1 0.4 1025.0 19.6
2015-Mar-26 22:00N 30°29' W 032°30'2 0.1 1024.6 19.6
2015-Mar-26 08:00N 30°29' W 032°28'1 1.0 1024.1 19.5
2015-Mar-26 07:00N 30°30' W 032°28'0 0.0 1024.1 19.5
2015-Mar-26 04:00N 30°30' W 032°28'1 0.2 1025.0 19.6
2015-Mar-25 23:00N 30°30' W 032°27'0 0.0 1026.0 19.6
2015-Mar-25 20:00N 30°30' W 032°27'1 0.2 1025.0 19.7
2015-Mar-25 16:00N 30°31' W 032°27'0 0.3 1025.1 19.8
2015-Mar-25 15:00N 30°31' W 032°27'0 0.1 1026.0 19.7
2015-Mar-25 12:00N 30°31' W 032°27'0 0.1 1027.5 19.6
2015-Mar-25 11:00N 30°31' W 032°27'1 1.0 1027.5 19.5
2015-Mar-25 10:00N 30°31' W 032°26'1 0.3 1027.5 19.5
2015-Mar-25 08:00N 30°32' W 032°26'0 0.0 1026.6 19.5
2015-Mar-25 07:00N 30°32' W 032°26'0 0.1 1026.5 19.5
2015-Mar-25 05:00N 30°32' W 032°25'0 0.5 1026.4 19.5
2015-Mar-25 04:00N 30°32' W 032°26'1 0.8 1026.8 19.5
2015-Mar-25 03:00N 30°33' W 032°25'2 0.2 1027.1 19.5
2015-Mar-24 17:00N 30°34' W 032°24'1 0.4 1027.6 19.7
2015-Mar-24 15:00N 30°34' W 032°25'1 1.2 1028.3 19.6
2015-Mar-24 14:00N 30°35' W 032°24'1 0.5 1028.5 19.6
2015-Mar-24 11:00N 30°36' W 032°23'2 0.1 1029.3 19.5
2015-Mar-23 23:00N 30°38' W 032°24'0 0.0 1029.3 19.5
2015-Mar-23 22:00N 30°38' W 032°24'1 0.3 1029.0 19.5
2015-Mar-23 17:00N 30°39' W 032°24'1 0.5 1027.9 19.6
2015-Mar-23 15:00N 30°40' W 032°24'0 0.1 1028.4 19.6
2015-Mar-23 09:00N 30°40' W 032°24'2 0.7 1028.0 19.4
2015-Mar-23 06:00N 30°42' W 032°24'0 0.0 1026.8 19.5
2015-Mar-23 05:00N 30°42' W 032°24'1 0.1 1026.4 19.5
2015-Mar-22 22:00N 30°43' W 032°24'3 0.3 1026.4 19.5
2015-Mar-22 12:00N 30°46' W 032°24'1 1.0 1026.5 19.5
2015-Mar-22 11:00N 30°47' W 032°24'1 0.4 1026.4 19.5
2015-Mar-22 07:00N 30°48' W 032°23'1 0.3 1024.8 19.5
2015-Mar-22 04:00N 30°48' W 032°22'2 0.4 1024.9 19.5
2015-Mar-21 22:00N 30°50' W 032°22'3 0.2 1025.5 19.6
2015-Mar-21 08:00N 30°52' W 032°18'2 0.9 1024.1 19.5
2015-Mar-21 06:00N 30°54' W 032°18'0 0.0 1023.9 19.5
2015-Mar-21 05:00N 30°54' W 032°18'2 0.3 1024.0 19.5
2015-Mar-20 22:00N 30°54' W 032°15'0 0.1 1024.9 19.6
2015-Mar-20 18:00N 30°54' W 032°15'3 0.4 1024.0 19.6
2015-Mar-20 11:00N 30°56' W 032°13'1 0.1 1026.1 19.5
2015-Mar-20 05:00N 30°57' W 032°14'3 0.3 1025.8 19.5
2015-Mar-19 20:00N 30°57' W 032°10'1 0.4 1027.0 19.6
2015-Mar-19 16:00N 30°58' W 032°09'0 0.0 1027.4 19.6
2015-Mar-19 15:00N 30°58' W 032°09'1 0.1 1027.9 19.6
2015-Mar-19 07:00N 30°57' W 032°08'0 0.0 1027.5 19.5
2015-Mar-19 06:00N 30°57' W 032°08'0 0.0 1027.5 19.5
2015-Mar-19 04:00N 30°58' W 032°08'1 0.2 1028.3 19.5
2015-Mar-18 23:00N 30°58' W 032°09'0 0.3 1029.1 19.6
2015-Mar-18 22:00N 30°58' W 032°09'0 0.4 1028.8 19.6
2015-Mar-18 21:00N 30°58' W 032°08'1 0.7 1028.3 19.7
2015-Mar-18 20:00N 30°58' W 032°09'0 0.0 1027.9 19.7
2015-Mar-18 19:00N 30°58' W 032°09'0 0.1 1027.4 19.7
2015-Mar-18 17:00N 30°58' W 032°09'0 0.0 1027.0 19.8
2015-Mar-18 16:00N 30°58' W 032°09'1 0.3 1027.1 19.7
2015-Mar-18 13:00N 30°59' W 032°09'1 0.4 1029.0 19.6
2015-Mar-18 10:00N 30°58' W 032°10'1 0.4 1028.6 19.6
2015-Mar-18 07:00N 30°58' W 032°11'0 0.1 1027.8 19.6
2015-Mar-18 06:00N 30°58' W 032°11'1 0.5 1027.6 19.6
2015-Mar-18 04:00N 30°58' W 032°12'1 1.1 1028.4 19.6
2015-Mar-18 03:00N 30°58' W 032°13'0 0.0 1029.0 19.6
2015-Mar-18 00:00N 30°58' W 032°13'1 1.5 1029.3 19.6
2015-Mar-17 23:00N 30°59' W 032°15'1 0.8 1029.0 19.6
2015-Mar-17 22:00N 30°59' W 032°16'0 0.2 1028.5 19.7
2015-Mar-17 20:00N 30°60' W 032°16'0 0.2 1027.1 19.7
2015-Mar-17 18:00N 30°60' W 032°16'2 0.5 1026.8 19.8
2015-Mar-17 14:00N 31°00' W 032°18'1 0.4 1027.8 19.7
2015-Mar-17 11:00N 31°01' W 032°20'0 0.5 1028.1 19.6
2015-Mar-17 10:00N 31°01' W 032°20'0 0.4 1027.6 19.6
2015-Mar-17 09:00N 31°01' W 032°20'1 0.5 1027.0 19.6
2015-Mar-17 08:00N 31°01' W 032°21'0 0.0 1026.5 19.6
2015-Mar-17 07:00N 31°01' W 032°21'3 2.6 1026.4 19.6
2015-Mar-17 06:00N 31°04' W 032°21'0 0.0 1026.5 19.6
2015-Mar-17 05:00N 31°04' W 032°21'0 0.0 1026.5 19.6
2015-Mar-17 04:00N 31°04' W 032°21'0 0.0 1027.0 19.6
2015-Mar-17 03:00N 31°04' W 032°21'   1027.4 19.6

Dump ship's entire track history